createdAt,value
2022-08-26T00:04:19.956Z,95829.56
2022-08-26T00:09:25.356Z,95826.97
2022-08-26T00:14:30.873Z,95821.09
2022-08-26T00:19:34.089Z,95833.41
2022-08-26T00:24:38.325Z,95825.22
2022-08-26T00:29:41.557Z,95832.09
2022-08-26T00:34:44.446Z,95827.94
2022-08-26T00:39:48.901Z,95823.78
2022-08-26T00:44:51.922Z,95828.59
2022-08-26T00:49:56.281Z,95844.50
2022-08-26T00:55:03.840Z,95839.25
2022-08-26T01:00:11.395Z,95841.97
2022-08-26T01:05:14.229Z,95837.94
2022-08-26T01:10:23.135Z,95835.00
2022-08-26T01:15:32.943Z,95838.97
2022-08-26T01:20:42.675Z,95833.66
2022-08-26T01:25:51.773Z,95837.59
2022-08-26T01:30:56.517Z,95835.72
2022-08-26T01:36:00.077Z,95841.75
2022-08-26T01:41:12.471Z,95834.75
2022-08-26T01:46:24.050Z,95836.16
2022-08-26T01:51:28.488Z,95845.75
2022-08-26T01:56:33.423Z,95836.91
2022-08-26T02:01:39.701Z,95845.56
2022-08-26T02:06:43.410Z,95845.13
2022-08-26T02:11:48.626Z,95845.94
2022-08-26T02:16:55.366Z,95838.94
2022-08-26T02:22:00.509Z,95844.47
2022-08-26T02:27:06.436Z,95855.88
2022-08-26T02:32:10.740Z,95857.94
2022-08-26T02:37:14.551Z,95849.84
2022-08-26T02:42:21.965Z,95845.84
2022-08-26T02:47:25.519Z,95853.13
2022-08-26T02:52:31.956Z,95845.09
2022-08-26T02:57:36.564Z,95840.69
2022-08-26T03:02:40.652Z,95838.91
2022-08-26T03:07:43.472Z,95830.75
2022-08-26T03:12:49.719Z,95829.94
2022-08-26T03:17:56.286Z,95823.44
2022-08-26T03:23:00.232Z,95821.03
2022-08-26T03:28:04.702Z,95833.59
2022-08-26T03:33:08.399Z,95828.16
2022-08-26T03:38:12.277Z,95831.91
2022-08-26T03:43:17.679Z,95834.22
2022-08-26T03:48:20.974Z,95844.41
2022-08-26T03:53:24.171Z,95830.94
2022-08-26T03:58:28.347Z,95828.88
2022-08-26T04:03:49.348Z,95824.09
2022-08-26T04:08:52.133Z,95831.25
2022-08-26T04:13:57.094Z,95831.47
2022-08-26T04:19:03.244Z,95832.13
2022-08-26T04:24:09.219Z,95833.53
2022-08-26T04:29:18.283Z,95833.41
2022-08-26T04:34:21.070Z,95832.50
2022-08-26T04:39:25.486Z,95834.66
2022-08-26T04:44:32.137Z,95827.75
2022-08-26T04:49:35.758Z,95843.97
2022-08-26T04:54:38.755Z,95845.50
2022-08-26T04:59:46.136Z,95850.97
2022-08-26T05:04:52.402Z,95850.59
2022-08-26T05:09:55.291Z,95848.53
2022-08-26T05:14:59.900Z,95858.50
2022-08-26T05:20:02.778Z,95869.00
2022-08-26T05:25:07.594Z,95866.66
2022-08-26T05:30:12.896Z,95865.34
2022-08-26T05:35:15.769Z,95852.47
2022-08-26T05:40:18.957Z,95874.13
2022-08-26T05:45:26.435Z,95872.81
2022-08-26T05:50:29.250Z,95867.06
2022-08-26T05:55:33.213Z,95873.41
2022-08-26T06:00:38.424Z,95878.84
2022-08-26T06:05:42.701Z,95876.38
2022-08-26T06:10:49.273Z,95876.16
2022-08-26T06:15:56.567Z,95885.38
2022-08-26T06:21:00.375Z,95898.75
2022-08-26T06:26:04.259Z,95921.19
2022-08-26T06:31:08.849Z,95939.06
2022-08-26T06:36:18.619Z,95940.13
2022-08-26T06:41:22.830Z,95943.81
2022-08-26T06:46:27.297Z,95946.09
2022-08-26T06:51:32.148Z,95938.69
2022-08-26T06:56:39.296Z,95948.91
2022-08-26T07:01:45.654Z,95945.84
2022-08-26T07:06:52.439Z,95947.25
2022-08-26T07:11:56.496Z,95947.00
2022-08-26T07:17:01.349Z,95948.81
2022-08-26T07:22:06.449Z,95919.50
2022-08-26T07:27:13.817Z,95939.25
2022-08-26T07:32:22.954Z,95932.63
2022-08-26T07:37:26.046Z,95936.72
2022-08-26T07:42:28.953Z,95925.75
2022-08-26T07:47:33.174Z,95930.72
2022-08-26T07:52:37.585Z,95930.88
2022-08-26T07:57:41.344Z,95929.97
2022-08-26T08:02:46.957Z,95938.03
2022-08-26T08:07:53.519Z,95940.81
2022-08-26T08:13:05.329Z,95960.06
2022-08-26T08:18:15.453Z,95967.00
2022-08-26T08:23:18.746Z,95953.75
2022-08-26T08:28:21.529Z,95965.84
2022-08-26T08:33:26.109Z,95973.38
2022-08-26T08:38:29.368Z,95985.16
2022-08-26T08:43:39.735Z,95985.91
2022-08-26T08:48:47.804Z,95980.34
2022-08-26T08:53:54.807Z,95993.88
2022-08-26T08:59:05.597Z,95988.72
2022-08-26T09:04:31.620Z,95982.84
2022-08-26T09:09:37.917Z,95991.41
2022-08-26T09:14:41.292Z,95979.81
2022-08-26T09:19:51.040Z,95980.41
2022-08-26T09:24:53.834Z,95972.28
2022-08-26T09:30:00.571Z,95971.78
2022-08-26T09:35:08.594Z,95970.97
2022-08-26T09:40:19.041Z,95951.63
2022-08-26T09:45:29.179Z,95966.50
2022-08-26T09:50:37.471Z,95963.94
2022-08-26T09:55:43.176Z,95963.09
2022-08-26T10:00:56.820Z,95954.44
2022-08-26T10:06:03.347Z,95951.28
2022-08-26T10:11:13.074Z,95952.00
2022-08-26T10:16:20.424Z,95947.25
2022-08-26T10:21:28.073Z,95951.63
2022-08-26T10:26:39.798Z,95949.91
2022-08-26T10:31:48.170Z,95951.28
2022-08-26T10:37:10.821Z,95946.19
2022-08-26T10:42:23.173Z,95948.13
2022-08-26T10:47:32.518Z,95934.41
2022-08-26T10:52:49.006Z,95932.22
2022-08-26T10:57:58.733Z,95935.38
2022-08-26T11:03:21.654Z,95925.91
2022-08-26T11:08:32.358Z,95926.00
2022-08-26T11:14:01.393Z,95918.00
2022-08-26T11:19:04.951Z,95909.81
2022-08-26T11:24:09.109Z,95897.72
2022-08-26T11:29:13.942Z,95894.66
2022-08-26T11:34:16.840Z,95884.19
2022-08-26T11:39:25.612Z,95881.41
2022-08-26T11:44:38.090Z,95884.69
2022-08-26T11:49:41.745Z,95878.66
2022-08-26T11:54:59.291Z,95881.47
2022-08-26T12:00:07.276Z,95870.81
2022-08-26T12:05:13.754Z,95873.56
2022-08-26T12:10:29.775Z,95876.22
2022-08-26T12:15:35.666Z,95882.72
2022-08-26T12:20:47.994Z,95880.03
2022-08-26T12:25:51.773Z,95878.94
2022-08-26T12:31:05.443Z,95887.81
2022-08-26T12:36:08.358Z,95881.06
2022-08-26T12:41:11.765Z,95884.84
2022-08-26T12:46:18.949Z,95882.66
2022-08-26T12:51:26.183Z,95867.00
2022-08-26T12:56:35.065Z,95863.19
2022-08-26T13:01:44.082Z,95864.34
2022-08-26T13:06:46.955Z,95855.97
2022-08-26T13:12:00.290Z,95857.81
2022-08-26T13:17:06.584Z,95846.53
2022-08-26T13:22:13.417Z,95841.53
2022-08-26T13:27:17.864Z,95838.81
2022-08-26T13:32:22.601Z,95833.19
2022-08-26T13:37:34.940Z,95825.22
2022-08-26T13:42:38.495Z,95814.97
2022-08-26T13:47:53.969Z,95818.06
2022-08-26T13:52:56.777Z,95825.28
2022-08-26T13:57:59.614Z,95810.72
2022-08-26T14:03:04.571Z,95810.47
2022-08-26T14:08:07.843Z,95803.69
2022-08-26T14:13:10.761Z,95801.59
2022-08-26T14:18:17.379Z,95810.88
2022-08-26T14:23:20.212Z,95806.25
2022-08-26T14:28:23.182Z,95803.09
2022-08-26T14:33:32.450Z,95795.38
2022-08-26T14:38:35.267Z,95785.59
2022-08-26T14:43:40.597Z,95787.06
2022-08-26T14:48:44.998Z,95790.28
2022-08-26T14:54:05.476Z,95776.59
2022-08-26T14:59:08.298Z,95778.41
2022-08-26T15:04:12.640Z,95778.63
2022-08-26T15:09:16.031Z,95780.41
2022-08-26T15:14:20.087Z,95776.91
2022-08-26T15:19:27.812Z,95774.25
2022-08-26T15:24:30.592Z,95770.13
2022-08-26T15:29:33.416Z,95757.50
2022-08-26T15:34:40.612Z,95753.19
2022-08-26T15:39:44.131Z,95751.78
2022-08-26T15:44:46.933Z,95736.84
2022-08-26T15:49:51.166Z,95734.78
2022-08-26T15:54:54.053Z,95735.88
2022-08-26T15:59:56.992Z,95731.63
2022-08-26T16:05:01.359Z,95721.22
2022-08-26T16:10:09.842Z,95719.81
2022-08-26T16:15:13.318Z,95711.53
2022-08-26T16:20:21.369Z,95717.00
2022-08-26T16:25:27.267Z,95727.06
2022-08-26T16:30:32.128Z,95727.84
2022-08-26T16:35:36.658Z,95738.09
2022-08-26T16:40:39.536Z,95733.75
2022-08-26T16:45:42.411Z,95738.28
2022-08-26T16:50:46.693Z,95746.84
2022-08-26T16:55:50.089Z,95750.06
2022-08-26T17:00:52.847Z,95749.47
2022-08-26T17:05:57.068Z,95744.94
2022-08-26T17:11:00.369Z,95745.41
2022-08-26T17:16:04.764Z,95750.81
2022-08-26T17:21:11.761Z,95754.03
2022-08-26T17:26:14.693Z,95759.41
2022-08-26T17:31:17.930Z,95759.13
2022-08-26T17:36:22.980Z,95759.75
2022-08-26T17:41:31.169Z,95755.06
2022-08-26T17:46:38.218Z,95751.88
2022-08-26T17:51:42.588Z,95756.44
2022-08-26T17:56:45.341Z,95745.91
2022-08-26T18:01:48.218Z,95771.94
2022-08-26T18:06:52.398Z,95765.56
2022-08-26T18:11:55.174Z,95773.34
2022-08-26T18:16:57.940Z,95783.09
2022-08-26T18:22:02.035Z,95774.44
2022-08-26T18:27:05.129Z,95780.16
2022-08-26T18:32:08.566Z,95788.06
2022-08-26T18:37:14.313Z,95791.91
2022-08-26T18:42:17.148Z,95788.75
2022-08-26T18:47:20.029Z,95791.81
2022-08-26T18:52:24.400Z,95790.63
2022-08-26T18:57:27.413Z,95794.16
2022-08-26T19:02:30.648Z,95809.66
2022-08-26T19:07:39.395Z,95818.59
2022-08-26T19:12:42.508Z,95815.00
2022-08-26T19:17:46.415Z,95815.59
2022-08-26T19:22:50.554Z,95825.16
2022-08-26T19:27:53.309Z,95830.38
2022-08-26T19:32:56.079Z,95822.88
2022-08-26T19:38:01.520Z,95828.66
2022-08-26T19:43:04.779Z,95828.41
2022-08-26T19:48:08.569Z,95831.28
2022-08-26T19:53:12.758Z,95834.19
2022-08-26T19:58:15.504Z,95828.16
2022-08-26T20:03:18.282Z,95829.63
2022-08-26T20:08:22.860Z,95839.56
2022-08-26T20:13:25.765Z,95832.56
2022-08-26T20:18:45.841Z,95827.94
2022-08-26T20:23:51.356Z,95843.25
2022-08-26T20:28:54.172Z,95842.84
2022-08-26T20:33:58.020Z,95820.66
2022-08-26T20:39:02.222Z,95849.28
2022-08-26T20:44:05.799Z,95848.28
2022-08-26T20:49:08.899Z,95841.78
2022-08-26T20:54:13.885Z,95850.63
2022-08-26T20:59:17.265Z,95850.16
2022-08-26T21:04:22.592Z,95856.97
2022-08-26T21:09:27.254Z,95858.94
2022-08-26T21:14:31.371Z,95857.53
2022-08-26T21:19:34.192Z,95858.69
2022-08-26T21:24:38.349Z,95856.34
2022-08-26T21:29:41.106Z,95856.94
2022-08-26T21:34:43.986Z,95847.22
2022-08-26T21:39:48.193Z,95849.47
2022-08-26T21:44:52.957Z,95844.16
2022-08-26T21:49:55.926Z,95847.03
2022-08-26T21:55:01.882Z,95857.22
2022-08-26T22:00:07.128Z,95845.56
2022-08-26T22:05:10.218Z,95852.78
2022-08-26T22:10:14.541Z,95845.72
2022-08-26T22:15:19.719Z,95854.41
2022-08-26T22:20:23.801Z,95849.59
2022-08-26T22:25:28.605Z,95850.16
2022-08-26T22:30:31.448Z,95847.47
2022-08-26T22:35:34.273Z,95849.94
2022-08-26T22:40:43.485Z,95852.81
2022-08-26T22:45:48.527Z,95859.38
2022-08-26T22:50:57.127Z,95854.75
2022-08-26T22:56:04.521Z,95854.50
2022-08-26T23:01:08.398Z,95855.22
2022-08-26T23:06:11.450Z,95848.09
2022-08-26T23:11:16.081Z,95851.41
2022-08-26T23:16:18.939Z,95851.81
2022-08-26T23:21:21.753Z,95849.41
2022-08-26T23:26:26.016Z,95849.91
2022-08-26T23:31:28.893Z,95842.59
2022-08-26T23:36:31.748Z,95846.31
2022-08-26T23:41:39.293Z,95841.88
2022-08-26T23:46:42.065Z,95846.81
2022-08-26T23:52:02.515Z,95845.78
2022-08-26T23:57:07.108Z,95845.38
